Aeroporto :
LOGIN :

Iscrizione | Disclaimer

   EN    FR    IT 

 










Sommario :    VFR   VFR Marginale   IFR   IFR Intensivo   IFR Molto Intensivo
Visibilità : 
Base nubi : 
>= 8 km
>= 3000ft
5 / 8 km
1000 / 3000 ft
1500m / 5 km
500 / 1000 ft
800 / 1500m
200 / 500 ft
< 800m
< 200 ft
Simboli :   Temporali  Nebbia  Neve Forte  Precipitazioni Forti  Vento > 20 kt
SIGMETs :   Varie  Temporali  Ghiacco  Turbolenza  Onda orograficha  Ceneri Vulcaniche







- Altitudine del aeroporto : 433 ft
- Carte del aeroporto


LFOC - Chateaudun

ULTIMO METAR :
  • 210330Z AUTO 22013KT 9999 FEW020 OVC140 17/14 Q1011

METARs OBSOLETI :
  • 210300Z AUTO 22014KT CAVOK 17/14 Q1011
  • 210230Z AUTO 22012KT CAVOK 17/14 Q1011
  • 210200Z AUTO 22013KT CAVOK 17/14 Q1011
  • 210130Z AUTO 22012KT CAVOK 17/14 Q1011
  • 210100Z AUTO 22011KT CAVOK 17/14 Q1011

TAF TAF LFOC
Valido dal 20 a 15 ore il 21 a 15 ore UTC


201400Z 2015/2115 21015KT CAVOK
BECMG 2101/2103 22016G26KT
TEMPO 2104/2108 5000 RA BKN010
BECMG 2108/2110 BKN025
Nessun NOTAM noto per questo aeroporto.
1 SIGMET conosciuto per la FIR Paris (LFFF) :
 
Turbolenza severa
LFFF SIGMET 1 VALID 210100/210500 LFPW
LFFF PARIS FIR/UIR SEV TURB FCST NW OF LINE N4845 W00015 - N5100 E00245 SFC/FL060 MOV E 20KT NC=



MetMap, La meteo Aeronautica in un colpo d'occhio ! - Copyright ORBIFLY Dicembre 2007 - Disclaimer

ORBIFLY MET'MAP TEAM :

Programmazione e sviluppo : Alexandra Zaïnal
Concezione e sviluppo : Baudouin d'Aumeries
Co-Programmazione e sviluppo : Marc-Olivier Méhu
Supporto tecnico e logistico : Manuel Goepfert
Aiuto per la traduzione : Arnaldo La Scala

Contatto : metmap@orbifly.com




FONTI E CREDITI :

   NOAA